createdAt,value
2023-01-15T00:00:12.514Z,1.67
2023-01-15T00:02:38.998Z,1.20
2023-01-15T00:05:05.452Z,1.08
2023-01-15T00:07:31.962Z,1.58
2023-01-15T00:09:59.421Z,1.92
2023-01-15T00:12:25.857Z,1.65
2023-01-15T00:14:52.230Z,1.45
2023-01-15T00:17:18.679Z,1.58
2023-01-15T00:19:45.132Z,1.50
2023-01-15T00:22:11.539Z,2.33
2023-01-15T00:24:37.966Z,1.70
2023-01-15T00:27:04.344Z,1.88
2023-01-15T00:29:30.790Z,1.80
2023-01-15T00:31:57.218Z,1.60
2023-01-15T00:34:23.595Z,1.67
2023-01-15T00:36:50.169Z,1.73
2023-01-15T00:39:16.581Z,1.38
2023-01-15T00:41:43.228Z,1.60
2023-01-15T00:44:09.745Z,1.30
2023-01-15T00:46:36.189Z,1.10
2023-01-15T00:49:02.593Z,1.05
2023-01-15T00:51:29.038Z,1.70
2023-01-15T00:53:55.458Z,1.35
2023-01-15T00:56:21.845Z,1.55
2023-01-15T00:58:48.280Z,1.42
2023-01-15T01:01:14.688Z,1.95
2023-01-15T01:03:41.095Z,1.45
2023-01-15T01:06:07.493Z,1.50
2023-01-15T01:08:33.897Z,1.45
2023-01-15T01:11:00.325Z,1.40
2023-01-15T01:13:26.711Z,1.50
2023-01-15T01:15:53.090Z,1.63
2023-01-15T01:18:19.480Z,1.25
2023-01-15T01:20:45.881Z,1.30
2023-01-15T01:23:12.292Z,1.67
2023-01-15T01:25:38.773Z,1.95
2023-01-15T01:28:05.208Z,1.25
2023-01-15T01:30:31.638Z,1.73
2023-01-15T01:32:58.068Z,1.88
2023-01-15T01:35:24.529Z,1.48
2023-01-15T01:37:50.956Z,1.70
2023-01-15T01:40:17.405Z,1.83
2023-01-15T01:42:43.840Z,1.73
2023-01-15T01:45:10.291Z,1.95
2023-01-15T01:47:36.694Z,1.60
2023-01-15T01:50:03.061Z,1.88
2023-01-15T01:52:29.493Z,1.52
2023-01-15T01:54:55.894Z,1.67
2023-01-15T01:57:22.305Z,1.85
2023-01-15T01:59:48.749Z,1.50
2023-01-15T02:02:15.229Z,1.88
2023-01-15T02:04:41.693Z,2.10
2023-01-15T02:07:08.091Z,1.60
2023-01-15T02:09:34.487Z,1.92
2023-01-15T02:12:00.888Z,1.95
2023-01-15T02:14:27.323Z,2.83
2023-01-15T02:16:53.770Z,2.60
2023-01-15T02:19:20.161Z,2.28
2023-01-15T02:21:46.591Z,2.10
2023-01-15T02:24:12.973Z,2.38
2023-01-15T02:26:39.725Z,2.03
2023-01-15T02:29:06.120Z,1.35
2023-01-15T02:31:32.551Z,1.83
2023-01-15T02:33:59.005Z,1.83
2023-01-15T02:36:25.438Z,2.15
2023-01-15T02:38:51.828Z,1.63
2023-01-15T02:41:18.208Z,1.88
2023-01-15T02:43:44.674Z,2.15
2023-01-15T02:46:11.092Z,2.00
2023-01-15T02:48:37.535Z,1.80
2023-01-15T02:51:03.966Z,2.15
2023-01-15T02:53:30.455Z,1.83
2023-01-15T02:55:56.895Z,1.63
2023-01-15T02:58:23.265Z,1.90
2023-01-15T03:00:49.719Z,1.60
2023-01-15T03:03:16.227Z,1.58
2023-01-15T03:05:42.613Z,2.70
2023-01-15T03:08:08.985Z,2.20
2023-01-15T03:10:35.418Z,2.05
2023-01-15T03:13:01.869Z,1.50
2023-01-15T03:15:28.270Z,1.83
2023-01-15T03:17:54.728Z,1.60
2023-01-15T03:20:21.124Z,2.05
2023-01-15T03:22:47.491Z,1.85
2023-01-15T03:25:13.945Z,1.38
2023-01-15T03:27:40.410Z,1.73
2023-01-15T03:30:06.803Z,1.55
2023-01-15T03:32:33.178Z,1.90
2023-01-15T03:34:59.622Z,1.42
2023-01-15T03:37:26.020Z,1.70
2023-01-15T03:39:52.398Z,1.80
2023-01-15T03:42:18.781Z,1.60
2023-01-15T03:44:45.242Z,2.38
2023-01-15T03:47:11.661Z,1.80
2023-01-15T03:49:38.044Z,1.92
2023-01-15T03:52:04.464Z,1.88
2023-01-15T03:54:30.868Z,1.45
2023-01-15T03:56:57.288Z,2.03
2023-01-15T03:59:23.745Z,1.92
2023-01-15T04:01:50.254Z,1.80
2023-01-15T04:04:16.725Z,1.90
2023-01-15T04:06:43.404Z,1.50
2023-01-15T04:09:09.839Z,1.50
2023-01-15T04:11:36.247Z,1.30
2023-01-15T04:14:02.607Z,1.45
2023-01-15T04:16:29.022Z,1.75
2023-01-15T04:18:55.435Z,2.03
2023-01-15T04:21:21.831Z,2.13
2023-01-15T04:23:48.218Z,1.67
2023-01-15T04:26:14.600Z,1.55
2023-01-15T04:28:41.049Z,1.50
2023-01-15T04:31:07.492Z,2.33
2023-01-15T04:33:33.942Z,1.70
2023-01-15T04:36:00.360Z,1.58
2023-01-15T04:38:26.742Z,2.35
2023-01-15T04:40:53.110Z,1.42
2023-01-15T04:43:19.539Z,1.73
2023-01-15T04:45:45.910Z,2.05
2023-01-15T04:48:12.306Z,1.38
2023-01-15T04:50:40.404Z,1.67
2023-01-15T04:53:06.953Z,2.00
2023-01-15T04:55:33.351Z,1.40
2023-01-15T04:57:59.740Z,1.60
2023-01-15T05:00:26.164Z,1.98
2023-01-15T05:02:52.585Z,1.50
2023-01-15T05:05:19.026Z,2.55
2023-01-15T05:07:45.463Z,1.83
2023-01-15T05:10:11.858Z,1.70
2023-01-15T05:12:38.271Z,1.98
2023-01-15T05:15:04.713Z,1.65
2023-01-15T05:17:31.144Z,1.77
2023-01-15T05:19:57.578Z,1.90
2023-01-15T05:22:24.017Z,2.00
2023-01-15T05:24:50.460Z,1.83
2023-01-15T05:27:16.901Z,2.22
2023-01-15T05:29:43.437Z,1.80
2023-01-15T05:32:09.884Z,1.45
2023-01-15T05:34:36.271Z,1.30
2023-01-15T05:37:02.707Z,1.20
2023-01-15T05:39:29.116Z,2.20
2023-01-15T05:41:55.491Z,1.92
2023-01-15T05:44:21.979Z,1.60
2023-01-15T05:46:48.375Z,1.67
2023-01-15T05:49:14.783Z,1.90
2023-01-15T05:51:41.209Z,1.73
2023-01-15T05:54:07.647Z,1.50
2023-01-15T05:56:34.101Z,1.77
2023-01-15T05:59:00.497Z,1.83
2023-01-15T06:01:26.929Z,1.88
2023-01-15T06:03:53.483Z,2.10
2023-01-15T06:06:20.056Z,2.08
2023-01-15T06:08:46.495Z,2.03
2023-01-15T06:11:12.946Z,2.05
2023-01-15T06:13:39.410Z,1.60
2023-01-15T06:16:05.858Z,2.05
2023-01-15T06:18:32.343Z,1.65
2023-01-15T06:20:58.734Z,2.30
2023-01-15T06:23:25.179Z,1.77
2023-01-15T06:25:51.613Z,1.60
2023-01-15T06:28:17.991Z,1.80
2023-01-15T06:30:44.356Z,2.00
2023-01-15T06:33:10.768Z,2.20
2023-01-15T06:35:37.152Z,2.45
2023-01-15T06:38:03.563Z,1.38
2023-01-15T06:40:29.957Z,2.05
2023-01-15T06:42:56.389Z,2.28
2023-01-15T06:45:22.848Z,1.90
2023-01-15T06:47:49.334Z,1.80
2023-01-15T06:50:15.748Z,2.65
2023-01-15T06:52:42.390Z,1.90
2023-01-15T06:55:08.951Z,2.33
2023-01-15T06:57:35.396Z,2.22
2023-01-15T07:00:01.858Z,1.98
2023-01-15T07:02:28.362Z,1.90
2023-01-15T07:04:54.809Z,2.15
2023-01-15T07:07:21.258Z,1.38
2023-01-15T07:09:47.717Z,1.50
2023-01-15T07:12:14.147Z,1.52
2023-01-15T07:14:40.692Z,1.25
2023-01-15T07:17:07.121Z,1.58
2023-01-15T07:19:33.541Z,1.40
2023-01-15T07:21:59.997Z,1.20
2023-01-15T07:24:26.395Z,1.25
2023-01-15T07:26:52.783Z,1.00
2023-01-15T07:29:19.232Z,1.13
2023-01-15T07:31:45.671Z,1.60
2023-01-15T07:34:12.095Z,1.58
2023-01-15T07:36:38.838Z,1.38
2023-01-15T07:39:05.303Z,1.40
2023-01-15T07:41:31.741Z,1.80
2023-01-15T07:43:58.188Z,1.60
2023-01-15T07:46:24.642Z,1.60
2023-01-15T07:48:51.080Z,1.70
2023-01-15T07:51:17.463Z,1.35
2023-01-15T07:53:43.825Z,2.08
2023-01-15T07:56:10.214Z,2.30
2023-01-15T07:58:36.646Z,1.90
2023-01-15T08:01:03.114Z,2.08
2023-01-15T08:03:29.636Z,1.70
2023-01-15T08:05:56.974Z,1.65
2023-01-15T08:08:23.461Z,1.95
2023-01-15T08:10:49.850Z,2.20
2023-01-15T08:13:16.288Z,2.40
2023-01-15T08:15:42.685Z,1.55
2023-01-15T08:18:09.136Z,2.42
2023-01-15T08:20:35.541Z,2.20
2023-01-15T08:23:01.970Z,2.10
2023-01-15T08:25:28.388Z,1.90
2023-01-15T08:27:54.782Z,1.73
2023-01-15T08:30:21.215Z,2.53
2023-01-15T08:32:47.647Z,1.70
2023-01-15T08:35:14.093Z,1.67
2023-01-15T08:37:40.547Z,1.77
2023-01-15T08:40:06.924Z,1.85
2023-01-15T08:42:33.427Z,1.70
2023-01-15T08:44:59.843Z,2.03
2023-01-15T08:47:26.254Z,1.70
2023-01-15T08:49:52.694Z,2.00
2023-01-15T08:52:19.131Z,1.55
2023-01-15T08:54:45.570Z,1.98
2023-01-15T08:57:11.964Z,2.15
2023-01-15T08:59:38.371Z,2.05
2023-01-15T09:02:04.888Z,1.80
2023-01-15T09:04:31.506Z,1.80
2023-01-15T09:06:57.943Z,2.25
2023-01-15T09:09:24.374Z,1.98
2023-01-15T09:11:50.843Z,1.70
2023-01-15T09:14:59.195Z,1.98
2023-01-15T09:17:03.591Z,1.98
2023-01-15T09:19:29.979Z,1.92
2023-01-15T09:21:56.348Z,2.00
2023-01-15T09:24:22.778Z,2.75
2023-01-15T09:26:49.183Z,1.80
2023-01-15T09:29:15.719Z,2.00
2023-01-15T09:31:42.724Z,2.00
2023-01-15T09:34:09.230Z,1.75
2023-01-15T09:36:35.631Z,1.98
2023-01-15T09:39:02.001Z,1.85
2023-01-15T09:41:28.452Z,1.50
2023-01-15T09:43:54.912Z,1.65
2023-01-15T09:46:21.336Z,2.25
2023-01-15T09:48:47.717Z,2.05
2023-01-15T09:51:14.089Z,2.00
2023-01-15T09:53:40.476Z,2.10
2023-01-15T09:56:06.843Z,2.38
2023-01-15T09:58:33.215Z,1.58
2023-01-15T10:00:59.688Z,1.63
2023-01-15T10:03:26.103Z,2.47
2023-01-15T10:05:52.579Z,2.17
2023-01-15T10:08:19.003Z,2.40
2023-01-15T10:10:45.417Z,1.92
2023-01-15T10:13:11.807Z,2.05
2023-01-15T10:15:38.300Z,2.08
2023-01-15T10:18:04.785Z,2.00
2023-01-15T10:20:31.184Z,1.98
2023-01-15T10:22:59.694Z,2.72
2023-01-15T10:25:26.296Z,2.45
2023-01-15T10:27:52.696Z,2.25
2023-01-15T10:30:19.155Z,3.83
2023-01-15T10:33:00.580Z,1.80
2023-01-15T10:35:28.223Z,1.75
2023-01-15T10:37:54.626Z,2.05
2023-01-15T10:40:21.006Z,2.03
2023-01-15T10:42:47.445Z,2.40
2023-01-15T10:45:13.812Z,2.67
2023-01-15T10:47:40.230Z,2.08
2023-01-15T10:50:06.608Z,1.60
2023-01-15T10:52:33.102Z,2.05
2023-01-15T10:54:59.484Z,2.05
2023-01-15T10:57:25.857Z,2.40
2023-01-15T10:59:52.233Z,2.22
2023-01-15T11:02:18.780Z,2.28
2023-01-15T11:04:45.769Z,2.40
2023-01-15T11:07:12.257Z,2.15
2023-01-15T11:09:38.629Z,1.80
2023-01-15T11:12:05.063Z,1.98
2023-01-15T11:14:31.486Z,2.45
2023-01-15T11:16:57.917Z,1.73
2023-01-15T11:19:24.351Z,2.00
2023-01-15T11:21:50.815Z,2.05
2023-01-15T11:24:17.255Z,2.00
2023-01-15T11:26:43.682Z,1.90
2023-01-15T11:29:10.127Z,2.40
2023-01-15T11:31:36.559Z,2.53
2023-01-15T11:34:03.009Z,2.08
2023-01-15T11:36:29.447Z,2.30
2023-01-15T11:38:55.855Z,1.65
2023-01-15T11:41:22.225Z,1.83
2023-01-15T11:43:48.590Z,2.53
2023-01-15T11:46:14.988Z,2.03
2023-01-15T11:48:41.372Z,1.67
2023-01-15T11:51:07.822Z,2.50
2023-01-15T11:53:34.385Z,2.63
2023-01-15T11:56:00.799Z,2.00
2023-01-15T11:58:27.249Z,1.50
2023-01-15T12:00:53.631Z,2.03
2023-01-15T12:03:20.103Z,1.70
2023-01-15T12:05:46.557Z,1.67
2023-01-15T12:08:12.987Z,1.85
2023-01-15T12:10:39.366Z,2.00
2023-01-15T12:13:05.796Z,1.70
2023-01-15T12:15:32.220Z,1.50
2023-01-15T12:17:58.605Z,2.50
2023-01-15T12:20:24.972Z,2.10
2023-01-15T12:22:51.344Z,2.08
2023-01-15T12:25:17.784Z,1.90
2023-01-15T12:27:44.168Z,2.20
2023-01-15T12:30:10.612Z,2.67
2023-01-15T12:32:37.087Z,2.35
2023-01-15T12:35:03.496Z,1.90
2023-01-15T12:37:29.934Z,1.60
2023-01-15T12:39:56.308Z,1.67
2023-01-15T12:42:22.745Z,1.77
2023-01-15T12:44:49.128Z,2.13
2023-01-15T12:47:15.541Z,2.35
2023-01-15T12:49:41.908Z,1.92
2023-01-15T12:52:08.362Z,1.77
2023-01-15T12:54:34.789Z,2.05
2023-01-15T12:57:02.834Z,1.70
2023-01-15T12:59:29.496Z,2.00
2023-01-15T13:01:56.055Z,2.00
2023-01-15T13:04:22.483Z,1.80
2023-01-15T13:06:48.882Z,2.10
2023-01-15T13:09:15.296Z,1.95
2023-01-15T13:11:41.750Z,1.67
2023-01-15T13:14:08.182Z,1.88
2023-01-15T13:16:34.613Z,1.60
2023-01-15T13:19:01.048Z,1.63
2023-01-15T13:21:27.440Z,2.33
2023-01-15T13:23:53.829Z,1.92
2023-01-15T13:26:20.193Z,1.63
2023-01-15T13:28:46.567Z,1.90
2023-01-15T13:31:12.970Z,1.90
2023-01-15T13:33:39.425Z,1.52
2023-01-15T13:36:05.822Z,1.55
2023-01-15T13:38:32.222Z,1.45
2023-01-15T13:40:58.590Z,1.38
2023-01-15T13:43:25.035Z,1.33
2023-01-15T13:45:51.485Z,1.70
2023-01-15T13:48:17.857Z,1.98
2023-01-15T13:50:44.232Z,1.73
2023-01-15T13:53:10.609Z,1.60
2023-01-15T13:55:37.047Z,1.48
2023-01-15T13:58:03.428Z,1.48
2023-01-15T14:00:29.867Z,1.45
2023-01-15T14:02:56.317Z,2.05
2023-01-15T14:05:22.771Z,1.77
2023-01-15T14:07:49.191Z,1.73
2023-01-15T14:10:15.641Z,1.92
2023-01-15T14:12:42.007Z,1.83
2023-01-15T14:15:08.421Z,2.55
2023-01-15T14:17:34.787Z,1.80
2023-01-15T14:20:01.175Z,1.60
2023-01-15T14:22:27.606Z,1.80
2023-01-15T14:24:54.062Z,1.70
2023-01-15T14:27:20.484Z,1.60
2023-01-15T14:29:46.862Z,1.50
2023-01-15T14:32:13.283Z,1.75
2023-01-15T14:34:39.725Z,1.60
2023-01-15T14:37:06.116Z,2.40
2023-01-15T14:39:32.539Z,1.73
2023-01-15T14:41:58.960Z,2.08
2023-01-15T14:44:25.391Z,2.00
2023-01-15T14:46:51.797Z,2.25
2023-01-15T14:49:18.165Z,1.90
2023-01-15T14:51:44.590Z,2.17
2023-01-15T14:54:11.076Z,2.05
2023-01-15T14:56:37.526Z,2.25
2023-01-15T14:59:03.950Z,1.60
2023-01-15T15:01:30.490Z,2.20
2023-01-15T15:03:56.988Z,2.33
2023-01-15T15:06:23.435Z,1.70
2023-01-15T15:08:49.860Z,2.88
2023-01-15T15:11:16.301Z,1.98
2023-01-15T15:13:42.666Z,1.90
2023-01-15T15:16:09.083Z,2.00
2023-01-15T15:18:35.460Z,1.83
2023-01-15T15:21:01.842Z,1.60
2023-01-15T15:23:28.225Z,2.10
2023-01-15T15:25:54.615Z,2.30
2023-01-15T15:28:21.052Z,2.30
2023-01-15T15:30:47.481Z,1.60
2023-01-15T15:33:13.904Z,2.03
2023-01-15T15:35:40.361Z,1.80
2023-01-15T15:38:06.829Z,2.30
2023-01-15T15:40:33.224Z,2.15
2023-01-15T15:42:59.659Z,2.50
2023-01-15T15:45:26.047Z,2.22
2023-01-15T15:47:52.474Z,2.00
2023-01-15T15:50:18.846Z,2.17
2023-01-15T15:52:45.211Z,2.58
2023-01-15T15:55:11.645Z,1.90
2023-01-15T15:57:38.048Z,2.17
2023-01-15T16:00:04.422Z,2.05
2023-01-15T16:02:30.952Z,1.70
2023-01-15T16:04:57.504Z,2.13
2023-01-15T16:07:23.889Z,2.15
2023-01-15T16:09:50.276Z,1.95
2023-01-15T16:12:16.655Z,1.80
2023-01-15T16:14:43.087Z,1.77
2023-01-15T16:17:09.516Z,1.92
2023-01-15T16:19:35.904Z,1.70
2023-01-15T16:22:02.311Z,1.80
2023-01-15T16:24:28.743Z,1.85
2023-01-15T16:26:55.134Z,2.33
2023-01-15T16:29:21.556Z,1.90
2023-01-15T16:31:47.951Z,1.92
2023-01-15T16:34:14.384Z,1.92
2023-01-15T16:36:40.822Z,2.03
2023-01-15T16:39:07.243Z,1.63
2023-01-15T16:41:33.612Z,2.10
2023-01-15T16:43:59.976Z,1.77
2023-01-15T16:46:26.496Z,2.90
2023-01-15T16:48:52.903Z,1.92
2023-01-15T16:51:19.321Z,2.78
2023-01-15T16:53:45.699Z,1.75
2023-01-15T16:56:12.110Z,2.38
2023-01-15T16:58:38.529Z,2.40
2023-01-15T17:01:04.939Z,2.25
2023-01-15T17:03:31.389Z,2.53
2023-01-15T17:05:57.792Z,2.13
2023-01-15T17:08:24.185Z,2.10
2023-01-15T17:10:50.611Z,2.38
2023-01-15T17:13:17.040Z,1.67
2023-01-15T17:15:43.520Z,1.95
2023-01-15T17:18:09.889Z,1.42
2023-01-15T17:20:36.258Z,1.70
2023-01-15T17:23:02.688Z,2.95
2023-01-15T17:25:29.125Z,1.73
2023-01-15T17:27:55.547Z,2.25
2023-01-15T17:30:22.176Z,1.83
2023-01-15T17:32:48.569Z,1.70
2023-01-15T17:35:14.999Z,1.48
2023-01-15T17:37:41.436Z,1.30
2023-01-15T17:40:07.861Z,1.20
2023-01-15T17:42:34.271Z,1.40
2023-01-15T17:45:00.638Z,1.20
2023-01-15T17:47:26.996Z,1.25
2023-01-15T17:49:53.392Z,1.08
2023-01-15T17:52:19.826Z,0.85
2023-01-15T17:54:46.266Z,0.70
2023-01-15T17:57:12.712Z,0.55
2023-01-15T17:59:39.093Z,0.50
2023-01-15T18:02:05.572Z,0.47
2023-01-15T18:04:32.026Z,0.75
2023-01-15T18:06:58.406Z,0.63
2023-01-15T18:09:24.779Z,0.43
2023-01-15T18:11:51.206Z,0.80
2023-01-15T18:14:17.623Z,0.65
2023-01-15T18:16:44.053Z,1.08
2023-01-15T18:19:10.495Z,0.90
2023-01-15T18:21:36.931Z,1.00
2023-01-15T18:24:03.358Z,0.80
2023-01-15T18:26:29.787Z,1.00
2023-01-15T18:28:56.215Z,0.90
2023-01-15T18:31:22.647Z,0.70
2023-01-15T18:33:49.035Z,1.23
2023-01-15T18:36:15.410Z,1.60
2023-01-15T18:38:41.833Z,1.30
2023-01-15T18:41:08.205Z,1.13
2023-01-15T18:43:34.638Z,1.13
2023-01-15T18:46:01.071Z,1.60
2023-01-15T18:48:27.519Z,2.10
2023-01-15T18:50:53.891Z,1.73
2023-01-15T18:53:20.264Z,2.00
2023-01-15T18:55:46.637Z,1.80
2023-01-15T18:58:13.063Z,1.73
2023-01-15T19:00:39.547Z,1.63
2023-01-15T19:03:05.949Z,1.70
2023-01-15T19:05:32.321Z,1.58
2023-01-15T19:07:58.743Z,1.27
2023-01-15T19:10:25.132Z,1.95
2023-01-15T19:12:51.535Z,1.83
2023-01-15T19:15:17.962Z,1.90
2023-01-15T19:17:44.412Z,1.85
2023-01-15T19:20:10.856Z,1.73
2023-01-15T19:22:37.273Z,2.47
2023-01-15T19:25:03.638Z,1.80
2023-01-15T19:27:30.076Z,1.70
2023-01-15T19:29:56.466Z,1.70
2023-01-15T19:32:22.832Z,1.60
2023-01-15T19:34:49.251Z,1.60
2023-01-15T19:37:15.680Z,1.85
2023-01-15T19:39:42.253Z,1.40
2023-01-15T19:42:08.660Z,1.40
2023-01-15T19:44:35.084Z,1.20
2023-01-15T19:47:01.685Z,1.45
2023-01-15T19:49:28.075Z,1.30
2023-01-15T19:51:54.515Z,1.30
2023-01-15T19:54:20.902Z,1.52
2023-01-15T19:56:47.275Z,1.27
2023-01-15T19:59:13.717Z,1.42
2023-01-15T20:01:40.176Z,1.20
2023-01-15T20:04:06.670Z,1.48
2023-01-15T20:06:33.061Z,1.25
2023-01-15T20:08:59.436Z,1.50
2023-01-15T20:11:25.822Z,1.38
2023-01-15T20:13:52.193Z,1.45
2023-01-15T20:16:18.587Z,1.30
2023-01-15T20:18:45.053Z,1.33
2023-01-15T20:21:11.456Z,1.45
2023-01-15T20:23:37.829Z,1.15
2023-01-15T20:26:04.257Z,1.40
2023-01-15T20:28:30.792Z,1.17
2023-01-15T20:30:57.184Z,1.40
2023-01-15T20:33:23.593Z,1.70
2023-01-15T20:35:50.026Z,1.45
2023-01-15T20:38:16.414Z,1.40
2023-01-15T20:40:42.871Z,1.35
2023-01-15T20:43:09.277Z,1.60
2023-01-15T20:45:35.717Z,1.67
2023-01-15T20:48:02.150Z,1.40
2023-01-15T20:50:28.617Z,1.50
2023-01-15T20:52:55.163Z,1.27
2023-01-15T20:55:21.623Z,1.40
2023-01-15T20:57:48.066Z,1.20
2023-01-15T21:00:14.448Z,1.10
2023-01-15T21:02:40.893Z,1.13
2023-01-15T21:05:07.426Z,1.10
2023-01-15T21:07:33.862Z,1.15
2023-01-15T21:10:00.328Z,1.23
2023-01-15T21:12:26.795Z,1.00
2023-01-15T21:14:53.184Z,1.35
2023-01-15T21:17:19.564Z,1.30
2023-01-15T21:19:46.227Z,0.80
2023-01-15T21:22:12.677Z,1.00
2023-01-15T21:24:39.121Z,0.95
2023-01-15T21:27:05.539Z,0.73
2023-01-15T21:29:31.964Z,1.10
2023-01-15T21:31:58.413Z,0.90
2023-01-15T21:34:24.824Z,0.82
2023-01-15T21:36:51.271Z,0.90
2023-01-15T21:39:17.694Z,1.00
2023-01-15T21:41:44.083Z,0.90
2023-01-15T21:44:10.496Z,1.25
2023-01-15T21:46:36.879Z,0.98
2023-01-15T21:49:03.287Z,1.35
2023-01-15T21:51:29.717Z,0.80
2023-01-15T21:53:57.443Z,1.05
2023-01-15T21:56:24.830Z,1.00
2023-01-15T21:58:51.278Z,0.98
2023-01-15T22:01:17.787Z,0.95
2023-01-15T22:03:46.656Z,1.10
2023-01-15T22:06:13.057Z,0.93
2023-01-15T22:08:39.506Z,1.30
2023-01-15T22:11:05.969Z,1.23
2023-01-15T22:13:32.584Z,0.95
2023-01-15T22:15:58.973Z,1.13
2023-01-15T22:18:25.474Z,1.10
2023-01-15T22:20:51.868Z,1.00
2023-01-15T22:23:18.308Z,1.13
2023-01-15T22:25:44.730Z,1.00
2023-01-15T22:28:11.201Z,0.90
2023-01-15T22:30:37.738Z,0.98
2023-01-15T22:33:04.240Z,1.20
2023-01-15T22:35:30.632Z,1.20
2023-01-15T22:37:57.067Z,1.17
2023-01-15T22:40:23.499Z,1.35
2023-01-15T22:42:49.959Z,1.13
2023-01-15T22:45:16.402Z,1.25
2023-01-15T22:47:42.798Z,1.15
2023-01-15T22:50:09.240Z,1.42
2023-01-15T22:52:35.680Z,0.85
2023-01-15T22:55:02.117Z,1.20
2023-01-15T22:57:28.545Z,1.00
2023-01-15T22:59:54.955Z,1.05
2023-01-15T23:02:21.425Z,1.00
2023-01-15T23:04:47.894Z,0.93
2023-01-15T23:07:14.385Z,0.98
2023-01-15T23:09:40.893Z,0.90
2023-01-15T23:12:07.439Z,0.85
2023-01-15T23:14:33.849Z,1.48
2023-01-15T23:17:00.275Z,0.80
2023-01-15T23:19:26.665Z,0.95
2023-01-15T23:21:53.105Z,1.05
2023-01-15T23:24:19.528Z,1.20
2023-01-15T23:26:45.972Z,1.85
2023-01-15T23:29:12.359Z,1.08
2023-01-15T23:31:38.778Z,0.95
2023-01-15T23:34:05.133Z,0.93
2023-01-15T23:36:31.690Z,1.27
2023-01-15T23:38:58.138Z,1.83
2023-01-15T23:41:24.558Z,1.05
2023-01-15T23:43:50.947Z,0.90
2023-01-15T23:46:17.416Z,1.08
2023-01-15T23:48:43.865Z,1.27
2023-01-15T23:51:10.305Z,0.73
2023-01-15T23:53:36.704Z,0.95
2023-01-15T23:56:03.088Z,0.90
2023-01-15T23:58:29.462Z,0.88
